SBSL

Marechal Cunha Machado International Airport

Airport
ICAO code
SBSL
IATA Code
SLZ
Summary
ICAO Region
CARSAM
ICAO Territory
Location

São Luís, Maranhão

Serving
São Luís
Elevation
178 ft
Coordinates
2° 35' 13" S , 44° 14' 10" W
KCC
Metar
Observation
SBSL 271000Z 07007KT 9999 SCT017 28/23 Q1013
Station
Sao Luiz Aeroporto
Date/Time
2022-09-27 10:00:00
Wind direction
70°
Wind speed
07 kts
Lowest cloud amount
scattered clouds
Temperature
28°C
Dew point
23°C
Humidity
74%
QNH
1013 hPa
Weather condition
n/a

Marechal Cunha Machado International Airport (IATA: SLZ, ICAO: SBSL), formerly called Tirirical Airport, is the airport serving São Luís, Brazil. Since 17 October 1985 the airport is named after Marechal Cunha Machado.

Climatology

Tropical savanna climate (Köppen climate classification Aw)

Runways

Designator Length Width Surface Rops
9/27 1464 45 ASP Yes/Yes
6/24 2386 45 ASP Yes/Yes

Airport map

Aerial View

SKYbrary Partners:

Safety knowledge contributed by: